sensor_id;sensor_type;location;lat;lon;timestamp;P1;durP1;ratioP1;P2;durP2;ratioP2
46931;SDS011;32670;51.464;11.964;2022-12-10T00:01:09;17.00;;;15.30;;
46931;SDS011;32670;51.464;11.964;2022-12-10T00:03:37;16.60;;;14.90;;
46931;SDS011;32670;51.464;11.964;2022-12-10T00:06:03;16.00;;;14.40;;
46931;SDS011;32670;51.464;11.964;2022-12-10T00:08:31;15.87;;;14.33;;
46931;SDS011;32670;51.464;11.964;2022-12-10T00:10:57;15.83;;;14.30;;
46931;SDS011;32670;51.464;11.964;2022-12-10T00:13:23;15.93;;;14.43;;
46931;SDS011;32670;51.464;11.964;2022-12-10T00:15:48;15.50;;;14.03;;
46931;SDS011;32670;51.464;11.964;2022-12-10T00:18:14;15.20;;;13.77;;
46931;SDS011;32670;51.464;11.964;2022-12-10T00:20:39;15.17;;;13.67;;
46931;SDS011;32670;51.464;11.964;2022-12-10T00:23:05;14.90;;;13.43;;
46931;SDS011;32670;51.464;11.964;2022-12-10T00:25:33;15.03;;;13.50;;
46931;SDS011;32670;51.464;11.964;2022-12-10T00:27:59;15.10;;;13.67;;
46931;SDS011;32670;51.464;11.964;2022-12-10T00:30:24;14.53;;;13.13;;
46931;SDS011;32670;51.464;11.964;2022-12-10T00:32:50;14.17;;;12.87;;
46931;SDS011;32670;51.464;11.964;2022-12-10T00:35:16;14.77;;;13.37;;
46931;SDS011;32670;51.464;11.964;2022-12-10T00:37:41;13.47;;;12.17;;
46931;SDS011;32670;51.464;11.964;2022-12-10T00:40:07;14.20;;;12.83;;
46931;SDS011;32670;51.464;11.964;2022-12-10T00:42:33;13.73;;;12.53;;
46931;SDS011;32670;51.464;11.964;2022-12-10T00:44:58;13.50;;;12.30;;
46931;SDS011;32670;51.464;11.964;2022-12-10T00:47:24;13.33;;;12.13;;
46931;SDS011;32670;51.464;11.964;2022-12-10T00:49:49;12.90;;;11.70;;
46931;SDS011;32670;51.464;11.964;2022-12-10T00:52:15;13.30;;;12.10;;
46931;SDS011;32670;51.464;11.964;2022-12-10T00:54:40;13.97;;;12.57;;
46931;SDS011;32670;51.464;11.964;2022-12-10T00:57:06;12.50;;;11.30;;
46931;SDS011;32670;51.464;11.964;2022-12-10T00:59:32;12.57;;;11.37;;
46931;SDS011;32670;51.464;11.964;2022-12-10T01:01:57;12.33;;;11.23;;
46931;SDS011;32670;51.464;11.964;2022-12-10T01:04:23;12.40;;;11.10;;
46931;SDS011;32670;51.464;11.964;2022-12-10T01:06:49;11.77;;;10.77;;
46931;SDS011;32670;51.464;11.964;2022-12-10T01:09:18;12.00;;;11.00;;
46931;SDS011;32670;51.464;11.964;2022-12-10T01:11:49;12.00;;;10.80;;
46931;SDS011;32670;51.464;11.964;2022-12-10T01:14:16;12.33;;;11.23;;
46931;SDS011;32670;51.464;11.964;2022-12-10T01:16:44;12.27;;;11.10;;
46931;SDS011;32670;51.464;11.964;2022-12-10T01:19:10;10.77;;;9.87;;
46931;SDS011;32670;51.464;11.964;2022-12-10T01:21:35;11.63;;;10.53;;
46931;SDS011;32670;51.464;11.964;2022-12-10T01:24:02;11.80;;;10.67;;
46931;SDS011;32670;51.464;11.964;2022-12-10T01:26:29;10.60;;;9.67;;
46931;SDS011;32670;51.464;11.964;2022-12-10T01:28:56;11.27;;;10.17;;
46931;SDS011;32670;51.464;11.964;2022-12-10T01:31:23;11.33;;;10.27;;
46931;SDS011;32670;51.464;11.964;2022-12-10T01:33:51;11.07;;;9.93;;
46931;SDS011;32670;51.464;11.964;2022-12-10T01:36:20;10.80;;;9.80;;
46931;SDS011;32670;51.464;11.964;2022-12-10T01:38:49;10.33;;;9.33;;
46931;SDS011;32670;51.464;11.964;2022-12-10T01:41:25;10.27;;;9.37;;
46931;SDS011;32670;51.464;11.964;2022-12-10T01:44:02;10.90;;;9.80;;
46931;SDS011;32670;51.464;11.964;2022-12-10T01:46:38;9.70;;;8.90;;
46931;SDS011;32670;51.464;11.964;2022-12-10T01:49:09;9.93;;;9.03;;
46931;SDS011;32670;51.464;11.964;2022-12-10T01:51:37;10.20;;;9.20;;
46931;SDS011;32670;51.464;11.964;2022-12-10T01:54:05;9.87;;;8.97;;
46931;SDS011;32670;51.464;11.964;2022-12-10T01:56:35;9.40;;;8.60;;
46931;SDS011;32670;51.464;11.964;2022-12-10T01:59:04;9.70;;;8.80;;
46931;SDS011;32670;51.464;11.964;2022-12-10T02:01:32;9.57;;;8.77;;
46931;SDS011;32670;51.464;11.964;2022-12-10T02:04:14;9.27;;;8.47;;
46931;SDS011;32670;51.464;11.964;2022-12-10T02:06:54;9.17;;;8.37;;
46931;SDS011;32670;51.464;11.964;2022-12-10T02:12:31;8.80;;;8.03;;
46931;SDS011;32670;51.464;11.964;2022-12-10T02:15:18;9.03;;;8.23;;
46931;SDS011;32670;51.464;11.964;2022-12-10T02:17:52;10.23;;;8.33;;
46931;SDS011;32670;51.464;11.964;2022-12-10T02:20:30;8.33;;;7.60;;
46931;SDS011;32670;51.464;11.964;2022-12-10T02:23:07;8.97;;;8.17;;
46931;SDS011;32670;51.464;11.964;2022-12-10T02:31:43;8.40;;;7.60;;
46931;SDS011;32670;51.464;11.964;2022-12-10T02:34:16;7.47;;;6.80;;
46931;SDS011;32670;51.464;11.964;2022-12-10T02:36:44;7.70;;;7.00;;
46931;SDS011;32670;51.464;11.964;2022-12-10T02:39:13;7.53;;;6.83;;
46931;SDS011;32670;51.464;11.964;2022-12-10T02:41:47;7.60;;;6.90;;
46931;SDS011;32670;51.464;11.964;2022-12-10T02:44:16;7.80;;;7.10;;
46931;SDS011;32670;51.464;11.964;2022-12-10T02:46:43;7.37;;;6.70;;
46931;SDS011;32670;51.464;11.964;2022-12-10T02:49:11;8.70;;;7.90;;
46931;SDS011;32670;51.464;11.964;2022-12-10T02:51:38;7.67;;;7.03;;
46931;SDS011;32670;51.464;11.964;2022-12-10T02:54:05;7.10;;;6.50;;
46931;SDS011;32670;51.464;11.964;2022-12-10T02:56:55;7.70;;;7.00;;
46931;SDS011;32670;51.464;11.964;2022-12-10T02:59:28;7.17;;;6.57;;
46931;SDS011;32670;51.464;11.964;2022-12-10T03:02:06;7.33;;;6.73;;
46931;SDS011;32670;51.464;11.964;2022-12-10T03:07:40;6.83;;;6.23;;
46931;SDS011;32670;51.464;11.964;2022-12-10T03:10:26;7.37;;;6.70;;
46931;SDS011;32670;51.464;11.964;2022-12-10T03:13:12;6.63;;;6.13;;
46931;SDS011;32670;51.464;11.964;2022-12-10T03:15:41;6.93;;;6.33;;
46931;SDS011;32670;51.464;11.964;2022-12-10T03:18:09;7.13;;;6.53;;
46931;SDS011;32670;51.464;11.964;2022-12-10T03:20:38;6.97;;;6.37;;
46931;SDS011;32670;51.464;11.964;2022-12-10T03:23:08;6.60;;;6.10;;
46931;SDS011;32670;51.464;11.964;2022-12-10T03:25:36;6.30;;;5.80;;
46931;SDS011;32670;51.464;11.964;2022-12-10T03:28:03;6.50;;;5.90;;
46931;SDS011;32670;51.464;11.964;2022-12-10T03:30:30;6.27;;;5.77;;
46931;SDS011;32670;51.464;11.964;2022-12-10T03:32:57;6.13;;;5.63;;
46931;SDS011;32670;51.464;11.964;2022-12-10T03:35:23;6.00;;;5.50;;
46931;SDS011;32670;51.464;11.964;2022-12-10T03:37:49;6.03;;;5.53;;
46931;SDS011;32670;51.464;11.964;2022-12-10T03:40:18;6.43;;;5.87;;
46931;SDS011;32670;51.464;11.964;2022-12-10T03:42:47;5.50;;;5.10;;
46931;SDS011;32670;51.464;11.964;2022-12-10T03:45:12;6.07;;;5.57;;
46931;SDS011;32670;51.464;11.964;2022-12-10T03:47:38;5.80;;;5.30;;
46931;SDS011;32670;51.464;11.964;2022-12-10T03:50:05;5.73;;;5.27;;
46931;SDS011;32670;51.464;11.964;2022-12-10T03:52:31;5.80;;;5.30;;
46931;SDS011;32670;51.464;11.964;2022-12-10T03:54:56;5.70;;;5.20;;
46931;SDS011;32670;51.464;11.964;2022-12-10T03:57:22;5.67;;;5.17;;
46931;SDS011;32670;51.464;11.964;2022-12-10T03:59:48;5.73;;;5.23;;
46931;SDS011;32670;51.464;11.964;2022-12-10T04:02:13;5.73;;;5.23;;
46931;SDS011;32670;51.464;11.964;2022-12-10T04:04:39;6.00;;;5.50;;
46931;SDS011;32670;51.464;11.964;2022-12-10T04:07:04;5.30;;;4.90;;
46931;SDS011;32670;51.464;11.964;2022-12-10T04:09:29;5.20;;;4.80;;
46931;SDS011;32670;51.464;11.964;2022-12-10T04:11:58;5.80;;;5.30;;
46931;SDS011;32670;51.464;11.964;2022-12-10T04:14:25;5.50;;;5.00;;
46931;SDS011;32670;51.464;11.964;2022-12-10T04:17:10;5.30;;;4.90;;
46931;SDS011;32670;51.464;11.964;2022-12-10T04:19:36;5.20;;;4.70;;
46931;SDS011;32670;51.464;11.964;2022-12-10T04:22:01;5.23;;;4.83;;
46931;SDS011;32670;51.464;11.964;2022-12-10T04:24:46;4.87;;;4.50;;
46931;SDS011;32670;51.464;11.964;2022-12-10T04:27:31;4.83;;;4.43;;
46931;SDS011;32670;51.464;11.964;2022-12-10T04:30:00;5.40;;;4.93;;
46931;SDS011;32670;51.464;11.964;2022-12-10T04:32:26;5.00;;;4.60;;
46931;SDS011;32670;51.464;11.964;2022-12-10T04:34:53;5.03;;;4.63;;
46931;SDS011;32670;51.464;11.964;2022-12-10T04:37:19;5.00;;;4.60;;
46931;SDS011;32670;51.464;11.964;2022-12-10T04:39:45;4.90;;;4.50;;
46931;SDS011;32670;51.464;11.964;2022-12-10T04:42:12;4.70;;;4.30;;
46931;SDS011;32670;51.464;11.964;2022-12-10T04:44:38;5.00;;;4.60;;
46931;SDS011;32670;51.464;11.964;2022-12-10T04:47:04;4.60;;;4.30;;
46931;SDS011;32670;51.464;11.964;2022-12-10T04:49:31;4.73;;;4.33;;
46931;SDS011;32670;51.464;11.964;2022-12-10T04:51:56;4.43;;;4.03;;
46931;SDS011;32670;51.464;11.964;2022-12-10T04:54:22;4.10;;;3.70;;
46931;SDS011;32670;51.464;11.964;2022-12-10T04:56:48;4.20;;;3.90;;
46931;SDS011;32670;51.464;11.964;2022-12-10T04:59:14;4.20;;;3.90;;
46931;SDS011;32670;51.464;11.964;2022-12-10T05:01:40;4.60;;;4.20;;
46931;SDS011;32670;51.464;11.964;2022-12-10T05:04:06;4.30;;;4.00;;
46931;SDS011;32670;51.464;11.964;2022-12-10T05:06:33;4.37;;;4.07;;
46931;SDS011;32670;51.464;11.964;2022-12-10T05:08:59;4.03;;;3.73;;
46931;SDS011;32670;51.464;11.964;2022-12-10T05:11:25;4.53;;;4.13;;
46931;SDS011;32670;51.464;11.964;2022-12-10T05:13:53;4.27;;;3.97;;
46931;SDS011;32670;51.464;11.964;2022-12-10T05:16:21;4.47;;;4.07;;
46931;SDS011;32670;51.464;11.964;2022-12-10T05:18:48;4.40;;;4.10;;
46931;SDS011;32670;51.464;11.964;2022-12-10T05:21:14;4.37;;;4.07;;
46931;SDS011;32670;51.464;11.964;2022-12-10T05:23:43;4.13;;;3.77;;
46931;SDS011;32670;51.464;11.964;2022-12-10T05:28:36;3.90;;;3.60;;
46931;SDS011;32670;51.464;11.964;2022-12-10T05:31:04;4.60;;;4.20;;
46931;SDS011;32670;51.464;11.964;2022-12-10T05:33:30;4.20;;;3.80;;
46931;SDS011;32670;51.464;11.964;2022-12-10T05:35:57;3.80;;;3.50;;
46931;SDS011;32670;51.464;11.964;2022-12-10T05:38:29;4.37;;;4.07;;
46931;SDS011;32670;51.464;11.964;2022-12-10T05:41:00;3.60;;;3.40;;
46931;SDS011;32670;51.464;11.964;2022-12-10T05:43:29;3.80;;;3.50;;
46931;SDS011;32670;51.464;11.964;2022-12-10T05:46:02;3.57;;;3.27;;
46931;SDS011;32670;51.464;11.964;2022-12-10T05:48:29;3.40;;;3.20;;
46931;SDS011;32670;51.464;11.964;2022-12-10T05:50:55;3.53;;;3.23;;
46931;SDS011;32670;51.464;11.964;2022-12-10T05:53:21;3.20;;;3.00;;
46931;SDS011;32670;51.464;11.964;2022-12-10T05:55:46;3.70;;;3.40;;
46931;SDS011;32670;51.464;11.964;2022-12-10T05:58:12;3.70;;;3.40;;
46931;SDS011;32670;51.464;11.964;2022-12-10T06:00:38;3.33;;;3.13;;
46931;SDS011;32670;51.464;11.964;2022-12-10T06:03:04;3.67;;;3.37;;
46931;SDS011;32670;51.464;11.964;2022-12-10T06:05:35;3.53;;;3.23;;
46931;SDS011;32670;51.464;11.964;2022-12-10T06:08:01;2.97;;;2.77;;
46931;SDS011;32670;51.464;11.964;2022-12-10T06:10:27;3.70;;;3.40;;
46931;SDS011;32670;51.464;11.964;2022-12-10T06:12:52;3.50;;;3.20;;
46931;SDS011;32670;51.464;11.964;2022-12-10T06:15:18;3.50;;;3.27;;
46931;SDS011;32670;51.464;11.964;2022-12-10T06:17:43;3.63;;;3.33;;
46931;SDS011;32670;51.464;11.964;2022-12-10T06:20:09;3.30;;;3.10;;
46931;SDS011;32670;51.464;11.964;2022-12-10T06:22:35;3.37;;;3.17;;
46931;SDS011;32670;51.464;11.964;2022-12-10T06:25:00;3.37;;;2.90;;
46931;SDS011;32670;51.464;11.964;2022-12-10T06:27:26;3.50;;;3.23;;
46931;SDS011;32670;51.464;11.964;2022-12-10T06:29:53;3.13;;;2.93;;
46931;SDS011;32670;51.464;11.964;2022-12-10T06:32:19;4.20;;;2.90;;
46931;SDS011;32670;51.464;11.964;2022-12-10T06:34:44;3.00;;;2.80;;
46931;SDS011;32670;51.464;11.964;2022-12-10T06:37:10;3.40;;;3.20;;
46931;SDS011;32670;51.464;11.964;2022-12-10T06:39:35;3.13;;;2.93;;
46931;SDS011;32670;51.464;11.964;2022-12-10T06:42:01;2.90;;;2.70;;
46931;SDS011;32670;51.464;11.964;2022-12-10T06:44:27;3.10;;;2.90;;
46931;SDS011;32670;51.464;11.964;2022-12-10T06:46:52;2.90;;;2.70;;
46931;SDS011;32670;51.464;11.964;2022-12-10T06:49:18;2.80;;;2.60;;
46931;SDS011;32670;51.464;11.964;2022-12-10T06:51:43;3.03;;;2.60;;
46931;SDS011;32670;51.464;11.964;2022-12-10T06:54:09;3.00;;;2.80;;
46931;SDS011;32670;51.464;11.964;2022-12-10T06:56:34;3.07;;;2.60;;
46931;SDS011;32670;51.464;11.964;2022-12-10T06:59:03;2.80;;;2.60;;
46931;SDS011;32670;51.464;11.964;2022-12-10T07:01:31;2.73;;;2.53;;
46931;SDS011;32670;51.464;11.964;2022-12-10T07:03:57;2.67;;;2.47;;
46931;SDS011;32670;51.464;11.964;2022-12-10T07:06:22;2.70;;;2.50;;
46931;SDS011;32670;51.464;11.964;2022-12-10T07:08:50;4.13;;;2.77;;
46931;SDS011;32670;51.464;11.964;2022-12-10T07:11:17;3.00;;;2.50;;
46931;SDS011;32670;51.464;11.964;2022-12-10T07:13:45;16.10;;;14.63;;
46931;SDS011;32670;51.464;11.964;2022-12-10T07:16:11;12.53;;;11.53;;
46931;SDS011;32670;51.464;11.964;2022-12-10T07:18:38;9.70;;;8.90;;
46931;SDS011;32670;51.464;11.964;2022-12-10T07:21:17;7.43;;;6.30;;
46931;SDS011;32670;51.464;11.964;2022-12-10T07:23:43;6.80;;;6.20;;
46931;SDS011;32670;51.464;11.964;2022-12-10T07:26:09;7.17;;;6.47;;
46931;SDS011;32670;51.464;11.964;2022-12-10T07:28:34;11.90;;;6.60;;
46931;SDS011;32670;51.464;11.964;2022-12-10T07:31:01;11.93;;;6.90;;
46931;SDS011;32670;51.464;11.964;2022-12-10T07:33:30;16.57;;;7.70;;
46931;SDS011;32670;51.464;11.964;2022-12-10T07:35:56;18.93;;;7.77;;
46931;SDS011;32670;51.464;11.964;2022-12-10T07:38:22;11.70;;;7.40;;
46931;SDS011;32670;51.464;11.964;2022-12-10T07:40:49;12.33;;;7.57;;
46931;SDS011;32670;51.464;11.964;2022-12-10T07:43:15;10.93;;;7.00;;
46931;SDS011;32670;51.464;11.964;2022-12-10T07:45:40;51.37;;;32.50;;
46931;SDS011;32670;51.464;11.964;2022-12-10T07:48:06;47.13;;;31.37;;
46931;SDS011;32670;51.464;11.964;2022-12-10T07:50:31;35.97;;;25.53;;
46931;SDS011;32670;51.464;11.964;2022-12-10T07:52:57;30.43;;;20.73;;
46931;SDS011;32670;51.464;11.964;2022-12-10T07:55:22;27.03;;;18.37;;
46931;SDS011;32670;51.464;11.964;2022-12-10T07:57:48;23.00;;;17.17;;
46931;SDS011;32670;51.464;11.964;2022-12-10T08:00:13;21.30;;;16.40;;
46931;SDS011;32670;51.464;11.964;2022-12-10T08:02:39;24.13;;;16.10;;
46931;SDS011;32670;51.464;11.964;2022-12-10T08:05:05;20.50;;;15.20;;
46931;SDS011;32670;51.464;11.964;2022-12-10T08:07:30;20.07;;;13.93;;
46931;SDS011;32670;51.464;11.964;2022-12-10T08:09:57;22.07;;;14.00;;
46931;SDS011;32670;51.464;11.964;2022-12-10T08:12:22;21.83;;;13.57;;
46931;SDS011;32670;51.464;11.964;2022-12-10T08:14:47;16.43;;;13.77;;
46931;SDS011;32670;51.464;11.964;2022-12-10T08:17:13;21.13;;;14.10;;
46931;SDS011;32670;51.464;11.964;2022-12-10T08:19:38;19.37;;;13.97;;
46931;SDS011;32670;51.464;11.964;2022-12-10T08:22:04;18.83;;;14.90;;
46931;SDS011;32670;51.464;11.964;2022-12-10T08:24:29;20.03;;;14.07;;
46931;SDS011;32670;51.464;11.964;2022-12-10T08:26:55;15.73;;;13.67;;
46931;SDS011;32670;51.464;11.964;2022-12-10T08:29:21;18.47;;;14.67;;
46931;SDS011;32670;51.464;11.964;2022-12-10T08:31:46;17.10;;;13.43;;
46931;SDS011;32670;51.464;11.964;2022-12-10T08:34:12;17.00;;;14.33;;
46931;SDS011;32670;51.464;11.964;2022-12-10T08:36:40;18.20;;;14.20;;
46931;SDS011;32670;51.464;11.964;2022-12-10T08:39:06;15.27;;;13.17;;
46931;SDS011;32670;51.464;11.964;2022-12-10T08:41:31;17.87;;;13.87;;
46931;SDS011;32670;51.464;11.964;2022-12-10T08:43:57;17.90;;;13.27;;
46931;SDS011;32670;51.464;11.964;2022-12-10T08:46:22;15.20;;;13.37;;
46931;SDS011;32670;51.464;11.964;2022-12-10T08:48:49;19.00;;;13.93;;
46931;SDS011;32670;51.464;11.964;2022-12-10T08:51:16;15.97;;;13.20;;
46931;SDS011;32670;51.464;11.964;2022-12-10T08:53:42;18.27;;;13.23;;
46931;SDS011;32670;51.464;11.964;2022-12-10T08:56:08;18.47;;;13.83;;
46931;SDS011;32670;51.464;11.964;2022-12-10T08:58:34;18.67;;;14.93;;
46931;SDS011;32670;51.464;11.964;2022-12-10T09:01:05;14.93;;;13.23;;
46931;SDS011;32670;51.464;11.964;2022-12-10T09:03:34;15.70;;;13.20;;
46931;SDS011;32670;51.464;11.964;2022-12-10T09:06:04;14.90;;;13.30;;
46931;SDS011;32670;51.464;11.964;2022-12-10T09:08:31;14.53;;;12.80;;
46931;SDS011;32670;51.464;11.964;2022-12-10T09:10:56;16.43;;;13.47;;
46931;SDS011;32670;51.464;11.964;2022-12-10T09:13:22;13.80;;;12.30;;
46931;SDS011;32670;51.464;11.964;2022-12-10T09:15:51;17.37;;;13.87;;
46931;SDS011;32670;51.464;11.964;2022-12-10T09:18:17;15.37;;;13.87;;
46931;SDS011;32670;51.464;11.964;2022-12-10T09:20:43;15.30;;;13.80;;
46931;SDS011;32670;51.464;11.964;2022-12-10T09:23:09;15.37;;;13.63;;
46931;SDS011;32670;51.464;11.964;2022-12-10T09:25:34;15.97;;;14.27;;
46931;SDS011;32670;51.464;11.964;2022-12-10T09:28:01;16.63;;;14.77;;
46931;SDS011;32670;51.464;11.964;2022-12-10T09:30:26;15.03;;;13.53;;
46931;SDS011;32670;51.464;11.964;2022-12-10T09:32:52;16.03;;;14.33;;
46931;SDS011;32670;51.464;11.964;2022-12-10T09:35:17;15.27;;;13.67;;
46931;SDS011;32670;51.464;11.964;2022-12-10T09:37:43;14.73;;;13.23;;
46931;SDS011;32670;51.464;11.964;2022-12-10T09:40:10;15.43;;;13.73;;
46931;SDS011;32670;51.464;11.964;2022-12-10T09:42:52;17.67;;;14.80;;
46931;SDS011;32670;51.464;11.964;2022-12-10T09:50:55;16.27;;;14.60;;
46931;SDS011;32670;51.464;11.964;2022-12-10T09:53:24;16.63;;;14.93;;
46931;SDS011;32670;51.464;11.964;2022-12-10T09:55:51;16.23;;;14.53;;
46931;SDS011;32670;51.464;11.964;2022-12-10T09:58:18;16.00;;;14.40;;
46931;SDS011;32670;51.464;11.964;2022-12-10T10:01:09;16.50;;;14.80;;
46931;SDS011;32670;51.464;11.964;2022-12-10T10:03:38;19.07;;;15.63;;
46931;SDS011;32670;51.464;11.964;2022-12-10T10:06:06;16.23;;;14.57;;
46931;SDS011;32670;51.464;11.964;2022-12-10T10:08:41;18.30;;;15.17;;
46931;SDS011;32670;51.464;11.964;2022-12-10T10:11:16;18.17;;;14.97;;
46931;SDS011;32670;51.464;11.964;2022-12-10T10:13:49;17.17;;;15.37;;
46931;SDS011;32670;51.464;11.964;2022-12-10T10:18:58;18.30;;;16.40;;
46931;SDS011;32670;51.464;11.964;2022-12-10T10:21:27;18.77;;;16.73;;
46931;SDS011;32670;51.464;11.964;2022-12-10T10:23:55;18.43;;;16.43;;
46931;SDS011;32670;51.464;11.964;2022-12-10T10:26:23;19.33;;;17.53;;
46931;SDS011;32670;51.464;11.964;2022-12-10T10:28:49;19.30;;;17.30;;
46931;SDS011;32670;51.464;11.964;2022-12-10T10:31:21;19.07;;;17.17;;
46931;SDS011;32670;51.464;11.964;2022-12-10T10:33:53;17.53;;;15.83;;
46931;SDS011;32670;51.464;11.964;2022-12-10T10:36:28;19.90;;;17.60;;
46931;SDS011;32670;51.464;11.964;2022-12-10T10:39:08;18.80;;;16.80;;
46931;SDS011;32670;51.464;11.964;2022-12-10T10:41:36;18.00;;;16.23;;
46931;SDS011;32670;51.464;11.964;2022-12-10T10:44:04;18.13;;;16.33;;
46931;SDS011;32670;51.464;11.964;2022-12-10T10:46:37;18.50;;;16.60;;
46931;SDS011;32670;51.464;11.964;2022-12-10T10:49:12;19.17;;;17.27;;
46931;SDS011;32670;51.464;11.964;2022-12-10T10:51:50;18.47;;;16.47;;
46931;SDS011;32670;51.464;11.964;2022-12-10T10:57:06;19.20;;;17.30;;
46931;SDS011;32670;51.464;11.964;2022-12-10T10:59:41;21.13;;;18.60;;
46931;SDS011;32670;51.464;11.964;2022-12-10T11:04:52;19.50;;;17.70;;
46931;SDS011;32670;51.464;11.964;2022-12-10T11:09:44;19.40;;;17.50;;
46931;SDS011;32670;51.464;11.964;2022-12-10T11:12:29;20.27;;;18.17;;
46931;SDS011;32670;51.464;11.964;2022-12-10T11:18:00;19.73;;;17.83;;
46931;SDS011;32670;51.464;11.964;2022-12-10T11:20:31;20.00;;;18.00;;
46931;SDS011;32670;51.464;11.964;2022-12-10T11:23:01;20.00;;;18.10;;
46931;SDS011;32670;51.464;11.964;2022-12-10T11:36:49;22.17;;;19.97;;
46931;SDS011;32670;51.464;11.964;2022-12-10T11:50:37;22.33;;;20.23;;
46931;SDS011;32670;51.464;11.964;2022-12-10T11:58:14;23.93;;;21.53;;
46931;SDS011;32670;51.464;11.964;2022-12-10T12:01:03;24.07;;;21.57;;
46931;SDS011;32670;51.464;11.964;2022-12-10T12:09:18;24.53;;;22.23;;
46931;SDS011;32670;51.464;11.964;2022-12-10T12:12:02;26.17;;;23.57;;
46931;SDS011;32670;51.464;11.964;2022-12-10T12:19:53;27.07;;;24.47;;
46931;SDS011;32670;51.464;11.964;2022-12-10T12:22:29;26.23;;;23.73;;
46931;SDS011;32670;51.464;11.964;2022-12-10T12:25:31;27.23;;;24.63;;
46931;SDS011;32670;51.464;11.964;2022-12-10T12:30:49;27.13;;;24.33;;
46931;SDS011;32670;51.464;11.964;2022-12-10T12:33:28;28.40;;;25.70;;
46931;SDS011;32670;51.464;11.964;2022-12-10T12:36:05;28.47;;;25.77;;
46931;SDS011;32670;51.464;11.964;2022-12-10T12:38:49;29.40;;;26.53;;
46931;SDS011;32670;51.464;11.964;2022-12-10T12:41:42;30.03;;;27.17;;
46931;SDS011;32670;51.464;11.964;2022-12-10T12:44:19;30.03;;;27.13;;
46931;SDS011;32670;51.464;11.964;2022-12-10T12:47:05;29.57;;;26.77;;
46931;SDS011;32670;51.464;11.964;2022-12-10T12:49:44;29.53;;;26.53;;
46931;SDS011;32670;51.464;11.964;2022-12-10T12:54:57;30.73;;;27.70;;
46931;SDS011;32670;51.464;11.964;2022-12-10T13:00:03;31.00;;;28.00;;
46931;SDS011;32670;51.464;11.964;2022-12-10T13:02:48;30.00;;;27.10;;
46931;SDS011;32670;51.464;11.964;2022-12-10T13:13:35;29.17;;;26.23;;
46931;SDS011;32670;51.464;11.964;2022-12-10T13:37:33;30.13;;;27.13;;
46931;SDS011;32670;51.464;11.964;2022-12-10T13:40:13;31.63;;;28.53;;
46931;SDS011;32670;51.464;11.964;2022-12-10T13:42:54;30.87;;;27.83;;
46931;SDS011;32670;51.464;11.964;2022-12-10T13:45:41;32.33;;;29.13;;
46931;SDS011;32670;51.464;11.964;2022-12-10T13:48:17;32.27;;;29.07;;
46931;SDS011;32670;51.464;11.964;2022-12-10T13:53:24;32.20;;;29.23;;
46931;SDS011;32670;51.464;11.964;2022-12-10T13:56:08;31.10;;;27.90;;
46931;SDS011;32670;51.464;11.964;2022-12-10T13:59:04;31.73;;;28.47;;
46931;SDS011;32670;51.464;11.964;2022-12-10T14:01:57;29.10;;;26.20;;
46931;SDS011;32670;51.464;11.964;2022-12-10T14:05:09;31.47;;;28.07;;
46931;SDS011;32670;51.464;11.964;2022-12-10T14:07:36;31.03;;;27.83;;
46931;SDS011;32670;51.464;11.964;2022-12-10T14:10:03;29.83;;;26.97;;
46931;SDS011;32670;51.464;11.964;2022-12-10T14:12:40;30.83;;;27.73;;
46931;SDS011;32670;51.464;11.964;2022-12-10T14:15:08;30.73;;;27.83;;
46931;SDS011;32670;51.464;11.964;2022-12-10T14:17:43;31.83;;;28.43;;
46931;SDS011;32670;51.464;11.964;2022-12-10T14:20:19;32.20;;;29.00;;
46931;SDS011;32670;51.464;11.964;2022-12-10T14:22:49;31.07;;;27.93;;
46931;SDS011;32670;51.464;11.964;2022-12-10T14:25:17;31.03;;;27.93;;
46931;SDS011;32670;51.464;11.964;2022-12-10T14:27:46;30.73;;;27.77;;
46931;SDS011;32670;51.464;11.964;2022-12-10T14:30:18;31.33;;;28.23;;
46931;SDS011;32670;51.464;11.964;2022-12-10T14:32:47;31.37;;;28.20;;
46931;SDS011;32670;51.464;11.964;2022-12-10T14:35:24;30.50;;;27.73;;
46931;SDS011;32670;51.464;11.964;2022-12-10T14:37:52;29.90;;;26.87;;
46931;SDS011;32670;51.464;11.964;2022-12-10T14:40:32;31.80;;;28.67;;
46931;SDS011;32670;51.464;11.964;2022-12-10T14:43:04;31.27;;;28.27;;
46931;SDS011;32670;51.464;11.964;2022-12-10T14:45:38;31.60;;;28.57;;
46931;SDS011;32670;51.464;11.964;2022-12-10T14:48:13;31.10;;;28.10;;
46931;SDS011;32670;51.464;11.964;2022-12-10T14:50:41;31.43;;;28.43;;
46931;SDS011;32670;51.464;11.964;2022-12-10T14:53:11;31.67;;;28.67;;
46931;SDS011;32670;51.464;11.964;2022-12-10T14:55:43;32.60;;;29.50;;
46931;SDS011;32670;51.464;11.964;2022-12-10T14:58:14;33.23;;;30.03;;
46931;SDS011;32670;51.464;11.964;2022-12-10T15:00:43;31.33;;;28.30;;
46931;SDS011;32670;51.464;11.964;2022-12-10T15:03:10;30.00;;;27.10;;
46931;SDS011;32670;51.464;11.964;2022-12-10T15:05:43;31.53;;;28.40;;
46931;SDS011;32670;51.464;11.964;2022-12-10T15:08:20;31.20;;;28.13;;
46931;SDS011;32670;51.464;11.964;2022-12-10T15:10:48;32.20;;;28.87;;
46931;SDS011;32670;51.464;11.964;2022-12-10T15:13:18;29.87;;;26.93;;
46931;SDS011;32670;51.464;11.964;2022-12-10T15:16:00;30.33;;;27.13;;
46931;SDS011;32670;51.464;11.964;2022-12-10T15:18:27;29.80;;;27.07;;
46931;SDS011;32670;51.464;11.964;2022-12-10T15:24:09;30.67;;;27.67;;
46931;SDS011;32670;51.464;11.964;2022-12-10T15:26:41;29.83;;;26.93;;
46931;SDS011;32670;51.464;11.964;2022-12-10T15:31:47;30.43;;;27.63;;
46931;SDS011;32670;51.464;11.964;2022-12-10T15:34:14;29.93;;;27.13;;
46931;SDS011;32670;51.464;11.964;2022-12-10T15:39:26;31.20;;;28.13;;
46931;SDS011;32670;51.464;11.964;2022-12-10T15:49:22;28.37;;;25.63;;
46931;SDS011;32670;51.464;11.964;2022-12-10T15:51:48;30.03;;;27.23;;
46931;SDS011;32670;51.464;11.964;2022-12-10T15:54:27;29.17;;;26.47;;
46931;SDS011;32670;51.464;11.964;2022-12-10T15:56:58;30.70;;;27.70;;
46931;SDS011;32670;51.464;11.964;2022-12-10T15:59:24;29.03;;;26.37;;
46931;SDS011;32670;51.464;11.964;2022-12-10T16:01:49;29.73;;;26.83;;
46931;SDS011;32670;51.464;11.964;2022-12-10T16:04:15;29.60;;;26.70;;
46931;SDS011;32670;51.464;11.964;2022-12-10T16:06:41;28.97;;;26.27;;
46931;SDS011;32670;51.464;11.964;2022-12-10T16:09:08;29.90;;;27.17;;
46931;SDS011;32670;51.464;11.964;2022-12-10T16:11:34;29.23;;;26.53;;
46931;SDS011;32670;51.464;11.964;2022-12-10T16:14:00;28.83;;;26.23;;
46931;SDS011;32670;51.464;11.964;2022-12-10T16:16:27;29.13;;;26.53;;
46931;SDS011;32670;51.464;11.964;2022-12-10T16:18:52;29.17;;;26.37;;
46931;SDS011;32670;51.464;11.964;2022-12-10T16:21:18;28.83;;;26.10;;
46931;SDS011;32670;51.464;11.964;2022-12-10T16:23:44;29.20;;;26.50;;
46931;SDS011;32670;51.464;11.964;2022-12-10T16:26:16;27.87;;;25.23;;
46931;SDS011;32670;51.464;11.964;2022-12-10T16:28:45;29.53;;;26.73;;
46931;SDS011;32670;51.464;11.964;2022-12-10T16:31:13;28.73;;;26.03;;
46931;SDS011;32670;51.464;11.964;2022-12-10T16:33:41;28.57;;;25.73;;
46931;SDS011;32670;51.464;11.964;2022-12-10T16:36:07;27.53;;;24.97;;
46931;SDS011;32670;51.464;11.964;2022-12-10T16:38:34;29.03;;;26.33;;
46931;SDS011;32670;51.464;11.964;2022-12-10T16:40:59;28.13;;;25.43;;